Time;durP1;ratioP1;P1;durP2;ratioP2;P2;SDS_P1;SDS_P2;PMS_P1;PMS_P2;Temp;Humidity;BMP_temperature;BMP_pressure;BME280_temperature;BME280_humidity;BME280_pressure;Samples;Min_cycle;Max_cycle;Signal;HPM_P1;HPM_P2
2023/04/23 00:01:12;;;;;;;3.47;2.58;;;;;;;13.91;79.94;97720.72;4166880;28;20036;-74
2023/04/23 00:03:13;;;;;;;3.80;2.20;;;;;;;13.87;80.13;97714.41;4160700;28;20123;-74
2023/04/23 00:05:15;;;;;;;3.17;2.20;;;;;;;13.86;79.95;97712.84;4163667;28;20055;-73
2023/04/23 00:07:18;;;;;;;2.10;1.90;;;;;;;13.84;80.05;97709.69;4165121;28;20048;-73
2023/04/23 00:09:21;;;;;;;3.70;2.22;;;;;;;13.86;79.97;97709.28;4162794;28;20132;-74
2023/04/23 00:11:22;;;;;;;3.83;2.00;;;;;;;13.84;80.20;97709.69;4162972;28;20076;-74
2023/04/23 00:13:23;;;;;;;3.22;2.40;;;;;;;13.83;80.33;97710.91;4162927;28;20052;-73
2023/04/23 00:15:24;;;;;;;3.15;2.20;;;;;;;13.83;80.69;97712.91;4162922;28;20035;-73
2023/04/23 00:17:24;;;;;;;3.97;2.10;;;;;;;13.81;80.34;97713.28;4167552;28;20048;-73
2023/04/23 00:19:24;;;;;;;2.88;2.58;;;;;;;13.79;80.58;97707.38;4161304;28;20099;-74
2023/04/23 00:21:26;;;;;;;3.78;2.47;;;;;;;13.77;81.04;97710.56;4160613;28;20048;-73
2023/04/23 00:23:27;;;;;;;3.20;2.50;;;;;;;13.76;81.12;97711.78;4161567;28;20635;-73
2023/04/23 00:25:27;;;;;;;3.83;2.20;;;;;;;13.76;81.12;97709.00;4164023;28;20046;-73
2023/04/23 00:27:28;;;;;;;4.63;2.78;;;;;;;13.74;81.70;97705.09;4166992;28;20082;-73
2023/04/23 00:29:28;;;;;;;4.93;2.55;;;;;;;13.70;81.52;97699.56;4162191;28;20037;-73
2023/04/23 00:31:28;;;;;;;5.30;2.42;;;;;;;13.69;82.15;97709.09;4163040;28;20041;-74
2023/04/23 00:33:29;;;;;;;4.93;2.70;;;;;;;13.67;82.53;97707.94;4161597;28;20065;-74
2023/04/23 00:35:29;;;;;;;2.92;2.15;;;;;;;13.64;82.43;97719.88;4160651;28;20088;-73
2023/04/23 00:37:30;;;;;;;5.47;2.30;;;;;;;13.64;82.63;97705.97;4159689;28;20037;-73
2023/04/23 00:39:30;;;;;;;3.15;2.35;;;;;;;13.62;82.95;97711.97;4163339;28;20389;-73
2023/04/23 00:41:30;;;;;;;3.38;2.40;;;;;;;13.64;82.84;97705.97;4161725;28;20049;-74
2023/04/23 00:43:31;;;;;;;3.60;2.20;;;;;;;13.63;83.17;97712.75;4164820;28;20042;-73
2023/04/23 00:45:31;;;;;;;3.08;2.28;;;;;;;13.63;82.90;97705.19;4164855;28;20033;-73
2023/04/23 00:47:33;;;;;;;3.45;2.40;;;;;;;13.70;82.98;97707.88;4165406;28;20051;-74
2023/04/23 00:49:34;;;;;;;2.70;2.03;;;;;;;13.64;83.54;97703.22;4162963;28;20041;-73
2023/04/23 00:51:34;;;;;;;4.53;2.10;;;;;;;13.70;84.38;97709.88;4161830;28;20538;-73
2023/04/23 00:53:35;;;;;;;3.55;1.88;;;;;;;13.69;84.57;97702.75;4160703;28;20111;-73
2023/04/23 00:55:35;;;;;;;2.53;1.80;;;;;;;13.66;85.45;97712.72;4163162;28;20060;-73
2023/04/23 00:57:37;;;;;;;2.78;2.20;;;;;;;13.62;86.24;97711.19;4162635;28;20068;-73
2023/04/23 00:59:37;;;;;;;2.13;1.90;;;;;;;13.57;87.04;97703.28;4161843;28;20120;-73
2023/04/23 01:01:38;;;;;;;3.55;2.15;;;;;;;13.51;88.03;97702.19;4164105;28;20494;-73
2023/04/23 01:03:41;;;;;;;2.40;1.90;;;;;;;13.52;89.17;97707.34;4159828;28;20069;-73
2023/04/23 01:05:41;;;;;;;3.80;2.30;;;;;;;13.52;90.02;97696.22;4163312;28;20036;-73
2023/04/23 01:07:43;;;;;;;2.67;1.92;;;;;;;13.49;90.50;97706.19;4165479;28;20045;-73
2023/04/23 01:09:45;;;;;;;2.43;1.83;;;;;;;13.51;90.90;97704.97;4160054;28;20044;-73
2023/04/23 01:11:46;;;;;;;3.60;1.73;;;;;;;13.45;90.98;97696.31;4161816;28;20386;-73
2023/04/23 01:13:46;;;;;;;2.60;1.80;;;;;;;13.45;91.71;97693.53;4163172;28;20040;-73
2023/04/23 01:15:46;;;;;;;2.72;2.10;;;;;;;13.41;92.14;97704.69;4162221;28;20045;-76
2023/04/23 01:17:47;;;;;;;3.38;2.17;;;;;;;13.40;92.36;97710.66;4162512;28;20055;-75
2023/04/23 01:19:47;;;;;;;3.25;2.05;;;;;;;13.39;93.34;97709.88;4163962;28;20087;-75
2023/04/23 01:21:49;;;;;;;4.60;2.00;;;;;;;13.36;93.96;97712.69;4161131;28;20389;-75
2023/04/23 01:23:49;;;;;;;2.55;1.90;;;;;;;13.34;93.98;97707.56;4176440;28;20465;-75
2023/04/23 01:25:50;;;;;;;2.80;1.98;;;;;;;13.30;94.17;97706.81;4160600;28;20053;-75
2023/04/23 01:27:51;;;;;;;5.05;2.30;;;;;;;13.33;94.79;97713.53;4160599;28;20068;-75
2023/04/23 01:29:51;;;;;;;3.80;2.22;;;;;;;13.32;94.86;97709.16;4161936;28;20382;-75
2023/04/23 01:31:52;;;;;;;2.92;2.50;;;;;;;13.31;95.44;97719.47;4163328;28;20045;-75
2023/04/23 01:33:54;;;;;;;2.60;2.40;;;;;;;13.29;95.37;97715.56;4164499;28;20095;-74
2023/04/23 01:35:56;;;;;;;3.25;2.45;;;;;;;13.24;95.93;97710.44;4162643;28;20049;-75
2023/04/23 01:37:58;;;;;;;3.28;2.10;;;;;;;13.26;96.18;97714.41;4160060;28;20037;-75
2023/04/23 01:39:58;;;;;;;2.88;2.47;;;;;;;13.22;96.72;97710.84;4160273;28;20038;-75
2023/04/23 01:42:00;;;;;;;4.03;2.40;;;;;;;13.19;96.79;97703.34;4166063;28;20110;-75
2023/04/23 01:44:00;;;;;;;2.95;2.35;;;;;;;13.18;96.65;97708.09;4160476;28;20385;-75
2023/04/23 01:46:01;;;;;;;2.47;1.90;;;;;;;13.16;96.58;97706.94;4161266;28;20280;-75
2023/04/23 01:48:02;;;;;;;3.70;2.40;;;;;;;13.17;97.70;97702.97;4162816;28;20052;-75
2023/04/23 01:50:04;;;;;;;4.63;2.63;;;;;;;13.15;97.84;97708.91;4161097;28;20045;-75
2023/04/23 01:52:04;;;;;;;3.92;2.35;;;;;;;13.16;97.82;97707.75;4162888;28;20037;-75
2023/04/23 01:54:04;;;;;;;3.75;2.58;;;;;;;13.12;98.24;97706.19;4160517;28;20029;-74
2023/04/23 01:56:06;;;;;;;2.85;2.33;;;;;;;13.10;99.12;97703.03;4162071;28;20191;-75
2023/04/23 01:58:06;;;;;;;2.95;2.33;;;;;;;13.06;98.83;97703.06;4162940;28;20053;-75
2023/04/23 02:00:10;;;;;;;2.97;2.28;;;;;;;12.99;99.23;97692.06;4160626;28;20071;-75
2023/04/23 02:02:12;;;;;;;2.95;2.20;;;;;;;13.01;99.79;97692.44;4160232;28;20025;-74
2023/04/23 02:04:14;;;;;;;3.42;2.47;;;;;;;12.97;100.00;97697.22;4162616;28;20034;-75
2023/04/23 02:06:15;;;;;;;3.77;2.60;;;;;;;12.94;100.00;97695.28;4158373;28;20470;-75
2023/04/23 02:08:15;;;;;;;4.32;2.35;;;;;;;12.94;100.00;97698.06;4159412;28;20350;-75
2023/04/23 02:10:16;;;;;;;3.17;2.30;;;;;;;12.90;100.00;97698.06;4163195;28;20469;-75
2023/04/23 02:12:16;;;;;;;4.95;2.70;;;;;;;12.87;100.00;97701.69;4160476;28;20021;-74
2023/04/23 02:14:16;;;;;;;5.10;2.28;;;;;;;12.85;100.00;97694.97;4159000;28;20414;-75
2023/04/23 02:16:18;;;;;;;4.22;2.50;;;;;;;12.84;100.00;97694.19;4159294;28;20021;-75
2023/04/23 02:18:18;;;;;;;2.95;2.30;;;;;;;12.78;100.00;97683.94;4163376;28;20052;-75
2023/04/23 02:20:20;;;;;;;4.05;2.42;;;;;;;12.79;100.00;97691.84;4158883;28;20450;-75
2023/04/23 02:22:23;;;;;;;3.47;2.45;;;;;;;12.78;100.00;97695.81;4159449;28;20052;-75
2023/04/23 02:24:24;;;;;;;3.25;2.60;;;;;;;12.78;100.00;97693.06;4159095;28;20575;-75
2023/04/23 02:26:24;;;;;;;3.25;2.50;;;;;;;12.79;100.00;97691.06;4159911;28;20037;-75
2023/04/23 02:28:24;;;;;;;4.05;2.70;;;;;;;12.80;100.00;97693.41;4158358;28;20108;-75
2023/04/23 02:30:25;;;;;;;4.80;2.83;;;;;;;12.76;100.00;97697.44;4160896;28;20378;-75
2023/04/23 02:32:26;;;;;;;6.47;2.78;;;;;;;12.77;100.00;97693.47;4161874;28;20065;-75
2023/04/23 02:34:27;;;;;;;4.28;3.05;;;;;;;12.76;100.00;97689.13;4163305;28;20048;-75
2023/04/23 02:36:29;;;;;;;3.45;2.65;;;;;;;12.77;100.00;97691.47;4163388;28;20056;-75
2023/04/23 02:38:30;;;;;;;3.25;2.70;;;;;;;12.75;100.00;97693.88;4162798;28;20049;-75
2023/04/23 02:40:30;;;;;;;2.90;2.60;;;;;;;12.77;100.00;97694.25;4165241;28;20049;-75
2023/04/23 02:42:31;;;;;;;4.07;2.60;;;;;;;12.75;100.00;97696.66;4161523;28;20585;-75
2023/04/23 02:44:31;;;;;;;2.90;2.42;;;;;;;12.71;100.00;97695.91;4164248;28;20037;-75
2023/04/23 02:46:31;;;;;;;4.55;2.53;;;;;;;12.70;100.00;97693.53;4162454;28;20045;-75
2023/04/23 02:48:37;;;;;;;2.83;2.35;;;;;;;12.69;100.00;97697.50;4161249;28;20363;-75
2023/04/23 02:50:38;;;;;;;4.45;2.70;;;;;;;12.70;100.00;97691.53;4162575;28;20164;-74
2023/04/23 02:52:38;;;;;;;4.50;2.58;;;;;;;12.70;100.00;97691.53;4161486;28;20056;-75
2023/04/23 02:54:38;;;;;;;2.88;2.50;;;;;;;12.69;100.00;97698.28;4165497;28;20037;-75
2023/04/23 02:56:39;;;;;;;3.13;2.45;;;;;;;12.65;100.00;97690.00;4165445;28;20041;-75
2023/04/23 02:58:40;;;;;;;4.88;2.70;;;;;;;12.67;100.00;97697.94;4161725;28;20098;-75
2023/04/23 03:00:40;;;;;;;4.50;2.67;;;;;;;12.65;100.00;97689.19;4162606;28;20131;-75
2023/04/23 03:02:40;;;;;;;3.97;2.53;;;;;;;12.67;100.00;97688.81;4162918;28;20471;-74
2023/04/23 03:04:41;;;;;;;5.40;3.13;;;;;;;12.67;100.00;97688.81;4163073;28;20482;-75
2023/04/23 03:06:41;;;;;;;4.47;2.80;;;;;;;12.67;100.00;97692.38;4160869;28;20069;-75
2023/04/23 03:08:41;;;;;;;3.65;2.88;;;;;;;12.63;100.00;97688.84;4161478;28;20385;-75
2023/04/23 03:10:42;;;;;;;4.78;2.53;;;;;;;12.63;100.00;97691.59;4162779;28;20171;-75
2023/04/23 03:12:42;;;;;;;2.97;2.35;;;;;;;12.61;100.00;97691.25;4162503;28;20132;-75
2023/04/23 03:14:43;;;;;;;3.63;2.55;;;;;;;12.62;100.00;97687.25;4164250;28;20041;-75
2023/04/23 03:16:43;;;;;;;3.20;2.20;;;;;;;12.62;100.00;97688.03;4164228;28;20041;-75
2023/04/23 03:18:43;;;;;;;4.28;2.60;;;;;;;12.60;100.00;97684.13;4164286;28;20516;-75
2023/04/23 03:20:44;;;;;;;2.78;2.08;;;;;;;12.61;100.00;97689.25;4162325;28;20108;-75
2023/04/23 03:22:44;;;;;;;3.58;2.55;;;;;;;12.60;100.00;97687.69;4162501;28;20045;-75
2023/04/23 03:24:45;;;;;;;2.85;2.30;;;;;;;12.57;100.00;97685.69;4163765;28;20053;-75
2023/04/23 03:26:45;;;;;;;3.53;2.20;;;;;;;12.61;100.00;97685.69;4160388;28;20037;-75
2023/04/23 03:28:45;;;;;;;4.47;2.63;;;;;;;12.61;100.00;97685.69;4162057;28;20049;-75
2023/04/23 03:30:46;;;;;;;2.92;2.35;;;;;;;12.57;100.00;97691.25;4162915;28;20044;-75
2023/04/23 03:32:46;;;;;;;4.20;2.05;;;;;;;12.58;100.00;97686.53;4162807;28;20489;-75
2023/04/23 03:34:46;;;;;;;3.20;2.17;;;;;;;12.55;100.00;97688.09;4161068;28;20485;-75
2023/04/23 03:36:47;;;;;;;3.00;2.40;;;;;;;12.58;100.00;97689.28;4161528;28;20072;-75
2023/04/23 03:38:47;;;;;;;2.40;2.10;;;;;;;12.56;100.00;97694.44;4167224;28;20071;-75
2023/04/23 03:40:48;;;;;;;3.45;2.00;;;;;;;12.58;100.00;97692.84;4159611;28;20040;-75
2023/04/23 03:42:48;;;;;;;3.22;2.15;;;;;;;12.56;100.00;97686.91;4161025;28;20449;-75
2023/04/23 03:44:48;;;;;;;3.20;2.50;;;;;;;12.55;100.00;97692.88;4162857;28;20065;-75
2023/04/23 03:46:51;;;;;;;2.63;2.05;;;;;;;12.56;100.00;97694.44;4160534;28;20034;-75
2023/04/23 03:48:51;;;;;;;3.08;2.38;;;;;;;12.53;100.00;97692.50;4161347;28;20413;-75
2023/04/23 03:50:51;;;;;;;2.50;2.15;;;;;;;12.54;100.00;97691.28;4160773;28;20048;-75
2023/04/23 03:52:52;;;;;;;2.85;2.10;;;;;;;12.53;100.00;97689.72;4160588;28;20048;-75
2023/04/23 03:54:52;;;;;;;3.13;2.25;;;;;;;12.51;100.00;97687.38;4161129;28;20045;-75
2023/04/23 03:56:53;;;;;;;3.35;2.97;;;;;;;12.53;100.00;97695.28;4160973;28;20505;-75
2023/04/23 03:58:53;;;;;;;4.18;2.30;;;;;;;12.52;100.00;97688.94;4160939;28;20516;-75
2023/04/23 04:00:54;;;;;;;3.80;2.00;;;;;;;12.51;100.00;97692.13;4161517;28;20127;-75
2023/04/23 04:02:55;;;;;;;2.72;2.00;;;;;;;12.45;100.00;97691.78;4161138;28;20053;-75
2023/04/23 04:04:55;;;;;;;2.70;1.88;;;;;;;12.48;100.00;97693.72;4160952;28;20045;-75
2023/04/23 04:06:56;;;;;;;2.45;1.55;;;;;;;12.51;100.00;97686.59;4161736;28;20172;-75
2023/04/23 04:08:57;;;;;;;2.60;1.88;;;;;;;12.48;100.00;97692.94;4160355;28;20045;-75
2023/04/23 04:10:57;;;;;;;2.22;1.70;;;;;;;12.48;100.00;97696.50;4161881;28;20314;-75
2023/04/23 04:12:57;;;;;;;3.25;1.67;;;;;;;12.49;100.00;97695.28;4160313;28;20683;-75
2023/04/23 04:14:58;;;;;;;2.33;1.80;;;;;;;12.45;100.00;97690.97;4160843;28;20038;-75
2023/04/23 04:16:59;;;;;;;2.25;1.98;;;;;;;12.44;100.00;97700.50;4161556;28;20069;-75
2023/04/23 04:19:00;;;;;;;2.95;1.90;;;;;;;12.46;100.00;97700.88;4160385;28;20421;-75
2023/04/23 04:21:00;;;;;;;2.55;1.45;;;;;;;12.43;100.00;97698.94;4162290;28;20042;-75
2023/04/23 04:23:01;;;;;;;3.58;1.67;;;;;;;12.40;100.00;97700.53;4160082;28;20107;-75
2023/04/23 04:25:01;;;;;;;3.10;1.65;;;;;;;12.38;100.00;97700.94;4160042;28;20128;-75
2023/04/23 04:27:03;;;;;;;2.35;1.67;;;;;;;12.33;100.00;97706.94;4160888;28;20033;-75
2023/04/23 04:29:04;;;;;;;2.58;1.90;;;;;;;12.37;100.00;97704.91;4159971;28;20434;-75
2023/04/23 04:31:05;;;;;;;2.33;1.70;;;;;;;12.33;100.00;97693.06;4161687;28;20110;-75
2023/04/23 04:33:05;;;;;;;5.13;1.50;;;;;;;12.34;100.00;97702.19;4160068;28;20045;-75
2023/04/23 04:35:07;;;;;;;1.65;1.55;;;;;;;12.30;100.00;97698.63;4160080;28;20508;-75
2023/04/23 04:37:10;;;;;;;2.72;1.60;;;;;;;12.32;100.00;97708.09;4160834;28;20049;-75
2023/04/23 04:39:12;;;;;;;1.98;1.67;;;;;;;12.32;100.00;97705.34;4161182;28;20080;-75
2023/04/23 04:41:13;;;;;;;1.67;1.40;;;;;;;12.30;100.00;97704.97;4160787;28;20402;-75
2023/04/23 04:43:15;;;;;;;2.08;1.65;;;;;;;12.26;100.00;97711.75;4161191;28;20052;-75
2023/04/23 04:45:15;;;;;;;2.15;1.65;;;;;;;12.25;100.00;97712.94;4166615;28;20055;-75
2023/04/23 04:47:16;;;;;;;2.00;1.48;;;;;;;12.21;100.00;97707.41;4159948;28;20045;-75
2023/04/23 04:49:18;;;;;;;3.33;1.55;;;;;;;12.21;100.00;97710.19;4160388;28;20056;-75
2023/04/23 04:51:19;;;;;;;2.15;1.67;;;;;;;12.19;100.00;97720.91;4160705;28;20490;-75
2023/04/23 04:53:19;;;;;;;2.72;1.73;;;;;;;12.20;100.00;97716.16;4159407;28;20056;-75
2023/04/23 04:55:20;;;;;;;1.70;1.42;;;;;;;12.21;100.00;97718.50;4159125;28;20045;-75
2023/04/23 04:57:21;;;;;;;2.97;1.30;;;;;;;12.18;100.00;97713.00;4163574;28;20513;-75
2023/04/23 04:59:22;;;;;;;1.52;1.42;;;;;;;12.21;100.00;97721.28;4160550;28;20091;-75
2023/04/23 05:01:24;;;;;;;3.30;1.30;;;;;;;12.17;100.00;97720.53;4159210;28;20489;-75
2023/04/23 05:03:25;;;;;;;1.83;1.40;;;;;;;12.11;100.00;97733.25;4158971;28;20389;-76
2023/04/23 05:05:26;;;;;;;3.22;1.40;;;;;;;12.09;100.00;97727.31;4160438;28;20067;-75
2023/04/23 05:07:26;;;;;;;1.75;1.60;;;;;;;12.09;100.00;97730.09;4163580;28;20185;-75
2023/04/23 05:09:27;;;;;;;1.63;1.38;;;;;;;12.10;100.00;97734.44;4159340;28;20084;-75
2023/04/23 05:11:27;;;;;;;1.67;1.30;;;;;;;12.07;100.00;97733.25;4160351;28;20052;-75
2023/04/23 05:13:27;;;;;;;1.85;1.30;;;;;;;12.05;100.00;97732.09;4160561;28;20033;-76
2023/04/23 05:15:28;;;;;;;4.10;1.55;;;;;;;12.06;100.00;97740.00;4161607;28;20033;-76
2023/04/23 05:17:28;;;;;;;2.05;1.50;;;;;;;12.11;100.00;97738.78;4160216;28;20128;-75
2023/04/23 05:19:29;;;;;;;2.25;1.60;;;;;;;12.05;100.00;97727.31;4159810;28;20045;-75
2023/04/23 05:21:30;;;;;;;3.15;1.63;;;;;;;12.09;100.00;97743.94;4160229;28;20165;-76
2023/04/23 05:23:31;;;;;;;2.95;1.23;;;;;;;12.07;100.00;97744.34;4159419;28;20041;-76
2023/04/23 05:25:33;;;;;;;1.60;1.50;;;;;;;12.07;100.00;97749.09;4162841;28;20059;-75
2023/04/23 05:27:34;;;;;;;2.80;1.45;;;;;;;12.07;100.00;97758.19;4161811;28;20127;-75
2023/04/23 05:29:34;;;;;;;1.58;1.27;;;;;;;12.06;100.00;97764.16;4159328;28;20045;-75
2023/04/23 05:31:35;;;;;;;2.17;1.50;;;;;;;12.04;100.00;97761.00;4159383;28;20371;-75
2023/04/23 05:33:35;;;;;;;1.27;1.17;;;;;;;12.07;100.00;97769.28;4162138;28;20359;-75
2023/04/23 05:35:35;;;;;;;1.88;1.50;;;;;;;12.03;100.00;97757.44;4159933;28;20045;-75
2023/04/23 05:37:36;;;;;;;1.77;1.42;;;;;;;12.04;100.00;97770.09;4158575;28;20048;-75
2023/04/23 05:39:36;;;;;;;2.80;1.30;;;;;;;12.00;100.00;97774.09;4159238;28;20045;-75
2023/04/23 05:41:36;;;;;;;1.40;1.25;;;;;;;12.02;100.00;97769.72;4159444;28;20065;-75
2023/04/23 05:43:37;;;;;;;1.77;1.20;;;;;;;11.95;100.00;97786.41;4162957;28;20045;-75
2023/04/23 05:45:37;;;;;;;2.47;1.70;;;;;;;11.74;100.00;97809.41;4162000;28;20773;-75
2023/04/23 05:47:37;;;;;;;1.67;1.13;;;;;;;11.44;100.00;97798.06;4160060;28;20191;-75
2023/04/23 05:49:38;;;;;;;1.90;1.27;;;;;;;10.99;100.00;97794.97;4160401;28;20045;-75
2023/04/23 05:51:38;;;;;;;1.65;1.10;;;;;;;11.00;100.00;97798.53;4160813;28;20075;-75
2023/04/23 05:53:38;;;;;;;1.85;1.40;;;;;;;10.88;100.00;97796.97;4158446;28;20048;-75
2023/04/23 05:55:39;;;;;;;1.73;1.40;;;;;;;10.78;100.00;97801.31;4167151;28;20128;-75
2023/04/23 05:57:39;;;;;;;2.58;1.65;;;;;;;10.60;100.00;97808.84;4159747;28;20081;-75
2023/04/23 05:59:40;;;;;;;2.35;1.98;;;;;;;10.61;100.00;97810.41;4160407;28;20085;-75
2023/04/23 06:01:40;;;;;;;2.35;1.70;;;;;;;10.58;100.00;97816.72;4159181;28;20470;-75
2023/04/23 06:03:44;;;;;;;2.28;1.48;;;;;;;10.57;100.00;97815.13;4158527;28;20119;-75
2023/04/23 06:05:44;;;;;;;2.50;1.63;;;;;;;10.59;100.00;97819.09;4159602;28;20269;-75
2023/04/23 06:07:44;;;;;;;2.90;1.70;;;;;;;10.53;100.00;97817.91;4158294;28;20075;-75
2023/04/23 06:09:45;;;;;;;1.75;1.50;;;;;;;10.50;100.00;97815.91;4164436;28;20045;-74
2023/04/23 06:11:45;;;;;;;2.75;2.00;;;;;;;10.51;100.00;97820.28;4159977;28;20025;-75
2023/04/23 06:13:46;;;;;;;10.85;2.25;;;;;;;10.51;100.00;97823.06;4160254;28;20466;-75
2023/04/23 06:15:46;;;;;;;3.47;2.53;;;;;;;10.52;100.00;97827.41;4161242;28;20436;-75
2023/04/23 06:17:46;;;;;;;2.88;2.30;;;;;;;10.56;100.00;97825.41;4163454;28;20037;-75
2023/04/23 06:19:47;;;;;;;3.80;2.88;;;;;;;10.59;100.00;97827.41;4159459;28;20049;-75
2023/04/23 06:21:47;;;;;;;2.65;2.30;;;;;;;10.62;100.00;97825.81;4159432;28;20037;-75
2023/04/23 06:23:48;;;;;;;2.88;2.50;;;;;;;10.63;100.00;97824.63;4159640;28;20099;-75
2023/04/23 06:25:48;;;;;;;2.67;2.13;;;;;;;10.63;100.00;97814.34;4164500;28;20111;-75
2023/04/23 06:27:48;;;;;;;3.55;2.80;;;;;;;10.64;100.00;97815.13;4157794;28;20041;-74
2023/04/23 06:29:49;;;;;;;3.53;2.13;;;;;;;10.72;100.00;97813.16;4143413;28;20042;-75
2023/04/23 06:31:49;;;;;;;2.40;2.13;;;;;;;10.73;100.00;97810.00;4160271;28;20034;-74
2023/04/23 06:33:49;;;;;;;3.78;2.28;;;;;;;10.78;100.00;97811.59;4159065;28;20045;-74
2023/04/23 06:35:50;;;;;;;3.35;2.50;;;;;;;10.85;100.00;97806.84;4158732;28;20050;-75
2023/04/23 06:37:51;;;;;;;2.85;2.05;;;;;;;10.97;100.00;97813.94;4159137;28;20057;-74
2023/04/23 06:39:51;;;;;;;3.67;2.47;;;;;;;11.04;100.00;97816.72;4158990;28;20054;-74
2023/04/23 06:41:52;;;;;;;2.55;2.05;;;;;;;11.12;100.00;97818.28;4158169;28;20120;-74
2023/04/23 06:43:52;;;;;;;3.67;2.47;;;;;;;11.21;100.00;97810.38;4158718;28;20042;-74
2023/04/23 06:45:53;;;;;;;4.72;2.70;;;;;;;11.30;100.00;97812.72;4159007;28;20045;-74
2023/04/23 06:47:53;;;;;;;3.58;2.38;;;;;;;11.38;100.00;97819.03;4164674;28;20783;-75
2023/04/23 06:49:53;;;;;;;3.10;2.00;;;;;;;11.46;100.00;97813.06;4159913;28;20041;-74
2023/04/23 06:51:53;;;;;;;3.50;2.40;;;;;;;11.56;100.00;97816.22;4162937;28;20269;-74
2023/04/23 06:53:54;;;;;;;2.17;1.83;;;;;;;11.59;100.00;97816.22;4157557;28;20524;-75
2023/04/23 06:55:54;;;;;;;3.88;2.00;;;;;;;11.61;100.00;97818.59;4158818;28;20044;-75
2023/04/23 06:57:55;;;;;;;3.40;1.88;;;;;;;11.68;100.00;97813.03;4158899;28;20049;-75
2023/04/23 06:59:55;;;;;;;3.55;2.20;;;;;;;11.71;100.00;97815.78;4135008;28;20501;-75
2023/04/23 07:01:56;;;;;;;4.43;2.60;;;;;;;11.68;100.00;97807.47;4171645;28;20041;-75
2023/04/23 07:03:56;;;;;;;3.05;2.50;;;;;;;11.65;100.00;97819.34;4158251;28;20042;-75
2023/04/23 07:05:56;;;;;;;3.03;2.22;;;;;;;11.62;100.00;97814.63;4158541;28;20136;-75
2023/04/23 07:07:57;;;;;;;3.97;2.20;;;;;;;11.65;100.00;97811.81;4158660;28;20049;-75
2023/04/23 07:09:57;;;;;;;3.00;2.58;;;;;;;11.67;100.00;97817.00;4159425;28;20046;-74
2023/04/23 07:11:57;;;;;;;10.45;3.15;;;;;;;11.69;100.00;97812.63;4160258;28;20548;-75
2023/04/23 07:13:58;;;;;;;4.65;3.28;;;;;;;11.70;100.00;97808.66;4157647;28;20077;-75
2023/04/23 07:15:58;;;;;;;4.45;3.53;;;;;;;11.75;100.00;97810.19;4161547;28;20033;-75
2023/04/23 07:17:59;;;;;;;4.20;3.53;;;;;;;11.75;100.00;97811.03;4164232;28;20656;-75
2023/04/23 07:19:59;;;;;;;4.55;3.22;;;;;;;11.82;100.00;97801.91;4163230;28;20125;-75
2023/04/23 07:22:00;;;;;;;4.00;3.22;;;;;;;11.94;100.00;97808.97;4163970;28;20045;-75
2023/04/23 07:24:05;;;;;;;5.05;3.33;;;;;;;11.99;100.00;97812.09;4162367;28;20056;-75
2023/04/23 07:26:05;;;;;;;3.25;2.95;;;;;;;12.02;100.00;97816.06;4162380;28;20043;-74
2023/04/23 07:28:06;;;;;;;3.10;2.78;;;;;;;12.06;100.00;97819.59;4163031;28;20021;-74
2023/04/23 07:30:07;;;;;;;4.60;2.78;;;;;;;12.04;100.00;97813.69;4161543;28;20216;-74
2023/04/23 07:32:07;;;;;;;4.68;3.55;;;;;;;12.03;100.00;97817.66;4167884;28;20060;-75
2023/04/23 07:34:08;;;;;;;4.72;3.40;;;;;;;11.96;100.00;97824.00;4160759;28;20462;-75
2023/04/23 07:36:09;;;;;;;4.03;3.25;;;;;;;11.95;100.00;97821.66;4160893;28;20145;-75
2023/04/23 07:38:09;;;;;;;3.88;3.00;;;;;;;11.90;100.00;97814.53;4161761;28;20052;-75
2023/04/23 07:40:10;;;;;;;3.75;3.05;;;;;;;11.91;100.00;97829.19;4166238;28;20427;-75
2023/04/23 07:42:10;;;;;;;4.65;3.55;;;;;;;11.92;100.00;97820.47;4163117;28;20402;-75
2023/04/23 07:44:10;;;;;;;4.40;2.83;;;;;;;11.99;100.00;97817.66;4162248;28;20083;-75
2023/04/23 07:46:11;;;;;;;3.30;2.72;;;;;;;12.04;100.00;97806.16;4162064;28;20029;-75
2023/04/23 07:48:11;;;;;;;3.78;2.78;;;;;;;12.14;100.00;97812.03;4162786;28;20037;-75
2023/04/23 07:50:12;;;;;;;3.00;2.50;;;;;;;12.24;100.00;97814.75;4163788;28;20114;-75
2023/04/23 07:52:14;;;;;;;4.22;2.80;;;;;;;12.35;100.00;97809.16;4162860;28;20037;-75
2023/04/23 07:54:14;;;;;;;4.13;2.90;;;;;;;12.52;100.00;97810.22;4164789;28;20035;-74
2023/04/23 07:56:14;;;;;;;3.85;2.35;;;;;;;12.61;100.00;97818.88;4160154;28;20113;-75
2023/04/23 07:58:15;;;;;;;3.95;3.20;;;;;;;12.69;100.00;97809.31;4165775;28;20121;-74
2023/04/23 08:00:15;;;;;;;4.90;3.13;;;;;;;12.71;100.00;97801.34;4163060;28;20417;-74
2023/04/23 08:02:17;;;;;;;5.65;2.75;;;;;;;12.76;100.00;97806.47;4162651;28;20026;-74
2023/04/23 08:04:17;;;;;;;3.53;2.88;;;;;;;12.81;100.00;97806.03;4164526;28;20421;-74
2023/04/23 08:06:17;;;;;;;4.60;2.92;;;;;;;12.87;100.00;97800.84;4162218;28;20454;-74
2023/04/23 08:08:18;;;;;;;3.47;2.88;;;;;;;12.94;100.00;97812.66;4166289;28;20068;-74
2023/04/23 08:10:18;;;;;;;4.30;3.22;;;;;;;12.99;99.95;97803.13;4161754;28;20071;-74
2023/04/23 08:12:18;;;;;;;2.92;2.63;;;;;;;13.02;99.91;97810.63;4162694;28;20045;-75
2023/04/23 08:14:19;;;;;;;4.30;3.50;;;;;;;13.03;98.11;97805.84;4162131;28;20193;-75
2023/04/23 08:16:19;;;;;;;3.67;2.72;;;;;;;13.08;99.87;97803.44;4160474;28;20049;-75
2023/04/23 08:18:19;;;;;;;4.20;3.20;;;;;;;13.15;96.41;97806.13;4163075;28;20120;-75
2023/04/23 08:20:20;;;;;;;4.93;3.45;;;;;;;13.20;98.29;97799.38;4162699;28;20100;-75
2023/04/23 08:22:20;;;;;;;4.53;3.40;;;;;;;13.31;99.19;97807.59;4162403;28;20318;-75
2023/04/23 08:24:20;;;;;;;5.97;2.80;;;;;;;13.41;97.76;97804.72;4162731;28;20045;-75
2023/04/23 08:26:22;;;;;;;4.32;2.85;;;;;;;13.48;96.35;97804.63;4160784;28;20053;-75
2023/04/23 08:28:22;;;;;;;3.55;3.03;;;;;;;13.55;95.96;97811.31;4162812;28;20048;-75
2023/04/23 08:30:23;;;;;;;3.60;2.65;;;;;;;13.55;97.68;97806.53;4162403;28;20038;-74
2023/04/23 08:32:23;;;;;;;4.70;3.00;;;;;;;13.62;97.37;97809.25;4161200;28;20068;-75
2023/04/23 08:34:24;;;;;;;3.22;2.85;;;;;;;13.55;93.88;97805.75;4162554;28;20041;-75
2023/04/23 08:36:26;;;;;;;3.42;2.65;;;;;;;13.46;93.44;97797.91;4159942;28;20330;-75
2023/04/23 08:38:27;;;;;;;;;;;;;;;13.48;92.61;97801.06;4160989;28;20404;-75
2023/04/23 08:40:30;;;;;;;3.28;2.50;;;;;;;13.53;92.62;97797.84;4161394;28;19953;-75
2023/04/23 08:42:47;;;;;;;3.22;2.92;;;;;;;13.67;93.08;97810.81;4163410;28;20087;-75
2023/04/23 08:44:50;;;;;;;5.10;3.00;;;;;;;13.80;97.01;97805.47;4165511;28;20174;-75
2023/04/23 08:46:53;;;;;;;3.47;2.60;;;;;;;13.90;92.99;97807.31;4161251;28;20083;-75
2023/04/23 08:48:57;;;;;;;2.85;2.50;;;;;;;13.88;89.88;97809.75;4162577;28;20369;-75
2023/04/23 08:51:00;;;;;;;3.33;2.60;;;;;;;13.92;90.27;97810.50;4160365;28;20875;-74
2023/04/23 08:53:03;;;;;;;4.20;2.67;;;;;;;13.96;90.13;97808.44;4161839;28;20087;-74
2023/04/23 08:55:06;;;;;;;;;;;;;;;14.02;88.01;97804.78;4161262;28;20098;-74
2023/04/23 08:57:08;;;;;;;3.55;2.70;;;;;;;14.01;89.43;97802.44;4160039;28;19987;-75
2023/04/23 08:59:09;;;;;;;3.15;2.35;;;;;;;14.12;89.13;97816.19;4160433;28;20048;-75
2023/04/23 09:01:10;;;;;;;3.65;2.28;;;;;;;14.21;90.50;97806.13;4162543;28;20403;-75
2023/04/23 09:03:11;;;;;;;3.85;2.97;;;;;;;14.24;87.51;97815.66;4163964;28;20528;-75
2023/04/23 09:05:12;;;;;;;2.80;2.03;;;;;;;14.27;84.00;97817.59;4163225;28;20132;-75
2023/04/23 09:07:13;;;;;;;2.67;2.28;;;;;;;14.04;84.25;97813.50;4162765;28;20124;-75
2023/04/23 09:09:19;;;;;;;4.53;2.20;;;;;;;14.03;84.97;97811.13;4160465;28;21166;-75
2023/04/23 09:11:21;;;;;;;4.93;2.60;;;;;;;14.17;88.35;97805.41;4161142;28;20038;-75
2023/04/23 09:13:22;;;;;;;3.70;2.25;;;;;;;14.26;89.05;97810.44;4164247;28;20076;-75
2023/04/23 09:15:22;;;;;;;2.80;2.47;;;;;;;14.29;86.73;97804.03;4169098;28;20349;-74
2023/04/23 09:17:27;;;;;;;4.93;2.20;;;;;;;14.20;84.77;97796.19;4162300;28;20064;-75
2023/04/23 09:19:29;;;;;;;2.33;1.90;;;;;;;14.16;81.85;97798.25;4163853;28;20077;-75
2023/04/23 09:21:30;;;;;;;2.97;2.17;;;;;;;14.09;83.15;97798.34;4176574;28;20497;-75
2023/04/23 09:23:30;;;;;;;3.10;2.45;;;;;;;14.22;84.50;97796.56;4161075;28;20330;-75
2023/04/23 09:25:31;;;;;;;2.70;2.10;;;;;;;14.36;81.83;97792.03;4159459;28;20520;-75